Time;durP1;ratioP1;P1;durP2;ratioP2;P2;SDS_P1;SDS_P2;PMS_P1;PMS_P2;Temp;Humidity;BMP_temperature;BMP_pressure;BME280_temperature;BME280_humidity;BME280_pressure;Samples;Min_cycle;Max_cycle;Signal;HPM_P1;HPM_P2
2023/05/29 00:01:11;;;;;;;11.87;5.93;;;;;;;;;;5029106;28;20033;-66
2023/05/29 00:03:37;;;;;;;11.30;5.80;;;;;;;;;;5021112;28;20390;-67
2023/05/29 00:06:02;;;;;;;11.43;6.40;;;;;;;;;;5018618;28;20034;-66
2023/05/29 00:08:27;;;;;;;10.52;5.13;;;;;;;;;;5019550;28;20029;-67
2023/05/29 00:10:53;;;;;;;12.40;5.57;;;;;;;;;;5020361;28;20109;-67
2023/05/29 00:13:18;;;;;;;9.60;5.70;;;;;;;;;;5012340;28;20405;-67
2023/05/29 00:15:43;;;;;;;10.43;5.43;;;;;;;;;;5026090;28;20112;-66
2023/05/29 00:18:08;;;;;;;11.10;5.67;;;;;;;;;;5027464;28;20021;-67
2023/05/29 00:20:34;;;;;;;9.98;5.55;;;;;;;;;;5016506;28;20458;-67
2023/05/29 00:22:59;;;;;;;9.65;5.13;;;;;;;;;;5022965;28;20025;-66
2023/05/29 00:25:25;;;;;;;10.52;5.07;;;;;;;;;;5018013;28;20018;-66
2023/05/29 00:27:50;;;;;;;10.20;4.93;;;;;;;;;;5021634;28;20025;-66
2023/05/29 00:30:15;;;;;;;10.47;4.90;;;;;;;;;;5023449;28;20029;-66
2023/05/29 00:32:40;;;;;;;9.00;4.73;;;;;;;;;;5025979;28;20104;-66
2023/05/29 00:35:06;;;;;;;12.17;5.30;;;;;;;;;;5026770;28;20477;-66
2023/05/29 00:37:31;;;;;;;9.15;4.80;;;;;;;;;;5017780;28;20095;-66
2023/05/29 00:39:56;;;;;;;9.53;4.57;;;;;;;;;;5025586;28;20010;-66
2023/05/29 00:42:21;;;;;;;9.88;4.75;;;;;;;;;;5026687;28;20457;-67
2023/05/29 00:44:46;;;;;;;9.83;4.77;;;;;;;;;;5026117;28;20025;-66
2023/05/29 00:47:12;;;;;;;8.95;3.90;;;;;;;;;;5025553;28;20100;-67
2023/05/29 00:49:37;;;;;;;7.60;3.93;;;;;;;;;;5029471;28;20026;-67
2023/05/29 00:52:03;;;;;;;9.90;4.20;;;;;;;;;;5018188;28;20026;-67
2023/05/29 00:54:29;;;;;;;7.75;4.10;;;;;;;;;;5027816;28;20455;-67
2023/05/29 00:56:54;;;;;;;;;;;;;;;;;;5023365;28;20021;-66
2023/05/29 00:59:21;;;;;;;8.13;3.63;;;;;;;;;;5021466;28;20352;-66
2023/05/29 01:01:47;;;;;;;7.68;3.80;;;;;;;;;;5028402;28;20025;-66
2023/05/29 01:04:13;;;;;;;8.45;3.80;;;;;;;;;;5022252;28;20022;-66
2023/05/29 01:06:39;;;;;;;8.80;4.03;;;;;;;;;;5021982;28;20037;-66
2023/05/29 01:09:04;;;;;;;;;;;;;;;;;;5020362;28;20022;-66
2023/05/29 01:11:48;;;;;;;8.65;4.20;;;;;;;;;;5028275;28;19909;-66
2023/05/29 01:14:33;;;;;;;8.43;4.05;;;;;;;;;;5022538;28;20433;-66
2023/05/29 01:17:21;;;;;;;7.80;3.85;;;;;;;;;;5022194;28;20017;-67
2023/05/29 01:19:52;;;;;;;7.65;3.70;;;;;;;;;;5017344;28;20034;-66
2023/05/29 01:22:20;;;;;;;9.25;4.18;;;;;;;;;;5023143;28;20021;-66
2023/05/29 01:24:46;;;;;;;9.27;3.72;;;;;;;;;;5015959;28;20083;-67
2023/05/29 01:27:11;;;;;;;7.83;3.70;;;;;;;;;;5026563;28;20029;-67
2023/05/29 01:29:38;;;;;;;7.93;3.50;;;;;;;;;;5027303;28;20040;-66
2023/05/29 01:32:04;;;;;;;7.35;3.42;;;;;;;;;;5029193;28;20063;-66
2023/05/29 01:34:29;;;;;;;7.93;3.72;;;;;;;;;;5036527;28;20025;-66
2023/05/29 01:36:55;;;;;;;8.40;3.53;;;;;;;;;;5032252;28;20013;-67
2023/05/29 01:39:21;;;;;;;7.23;3.20;;;;;;;;;;5027702;28;20032;-67
2023/05/29 01:41:47;;;;;;;8.10;3.50;;;;;;;;;;5022768;28;20025;-67
2023/05/29 01:44:12;;;;;;;9.75;3.85;;;;;;;;;;5024152;28;20104;-66
2023/05/29 01:46:38;;;;;;;7.30;3.20;;;;;;;;;;5025645;28;20032;-66
2023/05/29 01:49:04;;;;;;;7.82;3.50;;;;;;;;;;5029426;28;20020;-67
2023/05/29 01:51:31;;;;;;;8.10;3.70;;;;;;;;;;5030257;28;20730;-66
2023/05/29 01:53:56;;;;;;;8.85;3.88;;;;;;;;;;5026086;28;20499;-67
2023/05/29 01:56:22;;;;;;;7.30;3.67;;;;;;;;;;5033681;28;20033;-66
2023/05/29 01:58:48;;;;;;;8.65;3.53;;;;;;;;;;5033075;28;20072;-65
2023/05/29 02:01:13;;;;;;;8.57;3.42;;;;;;;;;;5035570;28;20626;-66
2023/05/29 02:03:38;;;;;;;7.33;3.50;;;;;;;;;;5034734;28;20093;-66
2023/05/29 02:06:03;;;;;;;7.80;3.50;;;;;;;;;;5032787;28;20480;-67
2023/05/29 02:08:28;;;;;;;8.30;3.50;;;;;;;;;;5036249;28;20053;-66
2023/05/29 02:10:54;;;;;;;8.97;3.27;;;;;;;;;;5038029;28;20033;-66
2023/05/29 02:13:20;;;;;;;10.38;3.85;;;;;;;;;;5034893;28;20010;-67
2023/05/29 02:15:45;;;;;;;7.25;3.10;;;;;;;;;;5028235;28;20041;-67
2023/05/29 02:18:13;;;;;;;8.37;3.70;;;;;;;;;;5028037;28;20147;-67
2023/05/29 02:20:38;;;;;;;7.80;3.75;;;;;;;;;;5031139;28;20036;-66
2023/05/29 02:23:04;;;;;;;8.27;3.50;;;;;;;;;;5029362;28;20009;-67
2023/05/29 02:25:29;;;;;;;8.85;3.72;;;;;;;;;;5029348;28;20083;-67
2023/05/29 02:27:54;;;;;;;7.05;3.17;;;;;;;;;;5024122;28;20025;-67
2023/05/29 02:30:20;;;;;;;7.83;3.40;;;;;;;;;;5020231;28;20708;-68
2023/05/29 02:32:46;;;;;;;8.27;3.73;;;;;;;;;;5031367;28;20025;-67
2023/05/29 02:35:13;;;;;;;6.85;3.00;;;;;;;;;;5020474;28;20053;-67
2023/05/29 02:37:38;;;;;;;7.22;3.15;;;;;;;;;;5024169;28;20032;-66
2023/05/29 02:40:04;;;;;;;8.60;3.17;;;;;;;;;;5021685;28;20105;-67
2023/05/29 02:42:29;;;;;;;8.35;3.38;;;;;;;;;;5019799;28;20053;-67
2023/05/29 02:44:54;;;;;;;7.77;3.47;;;;;;;;;;5029918;28;20060;-66
2023/05/29 02:47:19;;;;;;;8.52;3.33;;;;;;;;;;5028592;28;20018;-67
2023/05/29 02:49:45;;;;;;;10.50;3.60;;;;;;;;;;5030805;28;20047;-66
2023/05/29 02:52:10;;;;;;;7.53;3.60;;;;;;;;;;5037408;28;20022;-66
2023/05/29 02:54:35;;;;;;;8.13;3.70;;;;;;;;;;5022740;28;20140;-67
2023/05/29 02:57:02;;;;;;;7.80;3.50;;;;;;;;;;5021746;28;20046;-66
2023/05/29 02:59:27;;;;;;;7.85;3.45;;;;;;;;;;5019421;28;20112;-66
2023/05/29 03:01:52;;;;;;;6.83;3.47;;;;;;;;;;5018794;28;20104;-66
2023/05/29 03:04:18;;;;;;;7.30;3.50;;;;;;;;;;5023568;28;20386;-64
2023/05/29 03:06:43;;;;;;;7.45;3.00;;;;;;;;;;5019077;28;20034;-64
2023/05/29 03:09:08;;;;;;;6.97;3.30;;;;;;;;;;5029593;28;20104;-66
2023/05/29 03:11:35;;;;;;;7.33;3.30;;;;;;;;;;5031635;28;20075;-66
2023/05/29 03:14:00;;;;;;;7.70;3.20;;;;;;;;;;5027522;28;20156;-66
2023/05/29 03:16:29;;;;;;;7.20;3.28;;;;;;;;;;5022485;28;20101;-66
2023/05/29 03:18:54;;;;;;;8.55;3.85;;;;;;;;;;5019268;28;20493;-66
2023/05/29 03:21:19;;;;;;;10.68;3.45;;;;;;;;;;5039701;28;20067;-66
2023/05/29 03:23:45;;;;;;;6.93;3.27;;;;;;;;;;5027019;28;20029;-66
2023/05/29 03:26:12;;;;;;;7.57;3.42;;;;;;;;;;5032779;28;20041;-66
2023/05/29 03:28:37;;;;;;;9.05;3.33;;;;;;;;;;5025635;28;20682;-66
2023/05/29 03:31:02;;;;;;;6.63;3.20;;;;;;;;;;5038927;28;20089;-66
2023/05/29 03:33:27;;;;;;;6.60;3.43;;;;;;;;;;5022692;28;20033;-64
2023/05/29 03:35:52;;;;;;;7.88;3.60;;;;;;;;;;5022419;28;20037;-66
2023/05/29 03:38:18;;;;;;;6.75;3.45;;;;;;;;;;5035958;28;20019;-65
2023/05/29 03:40:43;;;;;;;6.27;3.10;;;;;;;;;;5020207;28;20053;-65
2023/05/29 03:43:08;;;;;;;8.13;3.60;;;;;;;;;;5017558;28;20100;-66
2023/05/29 03:45:33;;;;;;;6.88;3.28;;;;;;;;;;5026071;28;20033;-66
2023/05/29 03:47:58;;;;;;;7.07;2.90;;;;;;;;;;5022047;28;20056;-66
2023/05/29 03:50:24;;;;;;;7.67;3.03;;;;;;;;;;5026983;28;20025;-67
2023/05/29 03:52:49;;;;;;;6.93;2.97;;;;;;;;;;5023117;28;20577;-66
2023/05/29 03:55:14;;;;;;;8.20;3.20;;;;;;;;;;5020751;28;20041;-65
2023/05/29 03:57:40;;;;;;;8.37;3.40;;;;;;;;;;5022911;28;20029;-66
2023/05/29 04:00:07;;;;;;;7.13;3.22;;;;;;;;;;5026581;28;20463;-66
2023/05/29 04:02:32;;;;;;;6.43;2.88;;;;;;;;;;5024156;28;20084;-67
2023/05/29 04:04:58;;;;;;;6.13;3.13;;;;;;;;;;5025229;28;20472;-66
2023/05/29 04:07:24;;;;;;;7.15;3.30;;;;;;;;;;5023373;28;20026;-66
2023/05/29 04:09:49;;;;;;;8.57;3.28;;;;;;;;;;5031488;28;20020;-66
2023/05/29 04:12:15;;;;;;;7.65;3.08;;;;;;;;;;5019143;28;20018;-65
2023/05/29 04:14:40;;;;;;;5.75;2.70;;;;;;;;;;5015857;28;20017;-65
2023/05/29 04:17:06;;;;;;;6.47;2.90;;;;;;;;;;5018448;28;21256;-65
2023/05/29 04:19:31;;;;;;;6.20;2.80;;;;;;;;;;5021097;28;20025;-65
2023/05/29 04:21:56;;;;;;;7.00;3.37;;;;;;;;;;5030978;28;20022;-65
2023/05/29 04:24:21;;;;;;;9.67;3.47;;;;;;;;;;5023448;28;20021;-64
2023/05/29 04:26:46;;;;;;;6.57;2.87;;;;;;;;;;5017589;28;22143;-65
2023/05/29 04:29:12;;;;;;;9.17;3.33;;;;;;;;;;5027510;28;20048;-65
2023/05/29 04:31:37;;;;;;;8.02;3.60;;;;;;;;;;5019851;28;20069;-65
2023/05/29 04:34:04;;;;;;;6.97;3.20;;;;;;;;;;5021235;28;20466;-66
2023/05/29 04:36:32;;;;;;;6.82;3.28;;;;;;;;;;5021833;28;20037;-65
2023/05/29 04:38:58;;;;;;;8.05;3.30;;;;;;;;;;5035892;28;20044;-66
2023/05/29 04:41:29;;;;;;;9.80;3.42;;;;;;;;;;5027059;28;20079;-66
2023/05/29 04:43:56;;;;;;;8.93;3.28;;;;;;;;;;5017638;28;20040;-66
2023/05/29 04:46:21;;;;;;;10.05;3.42;;;;;;;;;;5023385;28;20029;-66
2023/05/29 04:48:47;;;;;;;8.10;3.42;;;;;;;;;;5019270;28;20029;-67
2023/05/29 04:51:12;;;;;;;7.00;3.08;;;;;;;;;;5023498;28;20109;-65
2023/05/29 04:53:40;;;;;;;7.53;3.30;;;;;;;;;;5029581;28;20473;-66
2023/05/29 04:56:05;;;;;;;8.07;3.50;;;;;;;;;;5019008;28;20063;-66
2023/05/29 04:58:30;;;;;;;8.37;3.23;;;;;;;;;;5023962;28;20026;-65
2023/05/29 05:00:57;;;;;;;6.63;3.17;;;;;;;;;;5023780;28;20516;-65
2023/05/29 05:03:24;;;;;;;5.82;3.00;;;;;;;;;;5022876;28;20452;-65
2023/05/29 05:05:49;;;;;;;8.18;3.25;;;;;;;;;;5020474;28;20477;-66
2023/05/29 05:08:14;;;;;;;7.13;3.33;;;;;;;;;;5019217;28;20033;-66
2023/05/29 05:10:40;;;;;;;6.33;3.20;;;;;;;;;;5020422;28;20094;-66
2023/05/29 05:13:07;;;;;;;5.73;3.03;;;;;;;;;;5035325;28;20082;-65
2023/05/29 05:15:32;;;;;;;7.57;2.92;;;;;;;;;;5030327;28;20351;-65
2023/05/29 05:17:57;;;;;;;8.65;3.42;;;;;;;;;;5018487;28;20052;-66
2023/05/29 05:20:22;;;;;;;7.93;3.30;;;;;;;;;;5024036;28;20021;-66
2023/05/29 05:22:47;;;;;;;6.37;2.77;;;;;;;;;;5025685;28;20056;-67
2023/05/29 05:25:13;;;;;;;7.10;2.88;;;;;;;;;;5020809;28;20029;-68
2023/05/29 05:27:38;;;;;;;6.43;3.10;;;;;;;;;;5019833;28;20052;-67
2023/05/29 05:30:03;;;;;;;8.90;3.45;;;;;;;;;;5033061;28;20500;-66
2023/05/29 05:32:28;;;;;;;8.00;3.05;;;;;;;;;;5025856;28;20025;-66
2023/05/29 05:34:53;;;;;;;6.23;3.00;;;;;;;;;;5026157;28;20040;-66
2023/05/29 05:37:19;;;;;;;6.07;3.13;;;;;;;;;;5014023;28;20026;-67
2023/05/29 05:39:44;;;;;;;8.43;3.33;;;;;;;;;;5020302;28;20022;-66
2023/05/29 05:42:09;;;;;;;7.47;3.30;;;;;;;;;;5021643;28;20022;-65
2023/05/29 05:44:34;;;;;;;6.80;3.37;;;;;;;;;;5021316;28;20467;-66
2023/05/29 05:46:59;;;;;;;7.93;3.58;;;;;;;;;;5020953;28;20129;-67
2023/05/29 05:49:25;;;;;;;6.07;2.80;;;;;;;;;;5016003;28;20017;-68
2023/05/29 05:51:50;;;;;;;7.93;3.47;;;;;;;;;;5017926;28;20018;-66
2023/05/29 05:54:15;;;;;;;7.35;3.38;;;;;;;;;;5009938;28;20475;-67
2023/05/29 05:56:41;;;;;;;8.10;3.43;;;;;;;;;;5013568;28;20039;-66
2023/05/29 05:59:06;;;;;;;7.00;3.30;;;;;;;;;;5014925;28;20039;-65
2023/05/29 06:01:32;;;;;;;7.07;3.20;;;;;;;;;;5028045;28;20382;-66
2023/05/29 06:03:58;;;;;;;7.15;3.40;;;;;;;;;;5016753;28;20017;-67
2023/05/29 06:06:23;;;;;;;7.63;3.42;;;;;;;;;;5016939;28;20105;-67
2023/05/29 06:08:48;;;;;;;6.60;3.17;;;;;;;;;;5015862;28;20053;-65
2023/05/29 06:11:14;;;;;;;8.38;3.63;;;;;;;;;;5031428;28;20397;-65
2023/05/29 06:13:39;;;;;;;7.03;3.20;;;;;;;;;;5018824;28;20026;-66
2023/05/29 06:16:04;;;;;;;7.68;3.13;;;;;;;;;;5021571;28;20459;-66
2023/05/29 06:18:30;;;;;;;8.83;3.50;;;;;;;;;;5026563;28;20482;-66
2023/05/29 06:20:55;;;;;;;7.97;3.60;;;;;;;;;;5022263;28;20552;-66
2023/05/29 06:23:20;;;;;;;8.03;3.40;;;;;;;;;;5040175;28;20493;-66
2023/05/29 06:25:45;;;;;;;8.10;3.40;;;;;;;;;;5025786;28;20105;-66
2023/05/29 06:28:10;;;;;;;7.60;3.83;;;;;;;;;;5023986;28;20049;-66
2023/05/29 06:30:36;;;;;;;7.13;3.13;;;;;;;;;;5023685;28;20405;-66
2023/05/29 06:33:01;;;;;;;9.93;3.70;;;;;;;;;;5031306;28;20026;-66
2023/05/29 06:35:26;;;;;;;6.63;3.22;;;;;;;;;;5043229;28;20555;-66
2023/05/29 06:37:52;;;;;;;8.32;3.55;;;;;;;;;;5047333;28;20060;-66
2023/05/29 06:40:17;;;;;;;8.27;3.30;;;;;;;;;;5025472;28;20036;-65
2023/05/29 06:42:45;;;;;;;7.47;3.80;;;;;;;;;;5029165;28;20078;-66
2023/05/29 06:45:13;;;;;;;7.32;3.50;;;;;;;;;;5025365;28;20017;-65
2023/05/29 06:47:38;;;;;;;7.05;3.45;;;;;;;;;;5034951;28;20032;-66
2023/05/29 06:50:03;;;;;;;10.73;3.40;;;;;;;;;;5018345;28;20022;-66
2023/05/29 06:52:28;;;;;;;7.40;3.63;;;;;;;;;;5019806;28;20270;-65
2023/05/29 06:54:54;;;;;;;7.90;3.57;;;;;;;;;;5024307;28;20076;-66
2023/05/29 06:57:19;;;;;;;8.27;3.92;;;;;;;;;;5031020;28;20025;-66
2023/05/29 06:59:44;;;;;;;7.17;3.83;;;;;;;;;;5021884;28;20527;-66
2023/05/29 07:02:09;;;;;;;7.28;3.22;;;;;;;;;;5018792;28;20477;-66
2023/05/29 07:04:35;;;;;;;6.57;3.30;;;;;;;;;;5024499;28;20041;-66
2023/05/29 07:07:00;;;;;;;7.18;3.58;;;;;;;;;;5014893;28;20496;-66
2023/05/29 07:09:27;;;;;;;8.13;3.40;;;;;;;;;;5021649;28;20026;-66
2023/05/29 07:11:52;;;;;;;8.13;3.40;;;;;;;;;;5022721;28;20036;-66
2023/05/29 07:14:17;;;;;;;7.03;2.90;;;;;;;;;;5026568;28;20025;-66
2023/05/29 07:16:43;;;;;;;9.17;3.53;;;;;;;;;;5011822;28;20030;-66
2023/05/29 07:19:08;;;;;;;6.60;3.23;;;;;;;;;;5018477;28;20017;-66
2023/05/29 07:21:33;;;;;;;6.37;3.20;;;;;;;;;;5019079;28;20025;-66
2023/05/29 07:23:59;;;;;;;6.53;3.42;;;;;;;;;;5022835;28;20397;-66
2023/05/29 07:26:25;;;;;;;7.90;3.13;;;;;;;;;;5014759;28;20482;-65
2023/05/29 07:28:50;;;;;;;6.30;3.13;;;;;;;;;;5025907;28;20018;-67
2023/05/29 07:31:15;;;;;;;7.57;3.03;;;;;;;;;;5022571;28;20021;-66
2023/05/29 07:33:41;;;;;;;7.43;3.13;;;;;;;;;;5019967;28;20021;-66
2023/05/29 07:36:07;;;;;;;6.38;2.80;;;;;;;;;;5021822;28;20017;-67
2023/05/29 07:38:32;;;;;;;7.68;3.17;;;;;;;;;;5017794;28;20040;-66
2023/05/29 07:40:57;;;;;;;8.97;3.20;;;;;;;;;;5019194;28;20021;-67
2023/05/29 07:43:22;;;;;;;6.93;3.00;;;;;;;;;;5012359;28;20422;-66
2023/05/29 07:45:48;;;;;;;6.27;2.93;;;;;;;;;;5016424;28;20030;-63
2023/05/29 07:48:13;;;;;;;6.30;2.87;;;;;;;;;;5022383;28;20022;-65
2023/05/29 07:50:38;;;;;;;8.10;3.20;;;;;;;;;;5017346;28;20029;-64
2023/05/29 07:53:03;;;;;;;6.60;2.57;;;;;;;;;;5029669;28;20056;-64
2023/05/29 07:55:29;;;;;;;6.30;3.10;;;;;;;;;;5028112;28;20511;-64
2023/05/29 07:57:54;;;;;;;7.97;3.22;;;;;;;;;;5021424;28;20022;-63
2023/05/29 08:00:19;;;;;;;5.35;2.40;;;;;;;;;;5022763;28;20029;-63
2023/05/29 08:02:45;;;;;;;7.27;2.83;;;;;;;;;;5025408;28;20046;-64
2023/05/29 08:05:10;;;;;;;5.95;2.80;;;;;;;;;;5024172;28;20021;-64
2023/05/29 08:07:36;;;;;;;6.30;2.70;;;;;;;;;;5020927;28;20105;-63
2023/05/29 08:10:01;;;;;;;7.10;2.78;;;;;;;;;;5018712;28;20021;-64
2023/05/29 08:12:26;;;;;;;5.93;2.63;;;;;;;;;;5022142;28;20105;-64
2023/05/29 08:14:51;;;;;;;6.40;2.80;;;;;;;;;;5031689;28;20108;-63
2023/05/29 08:17:17;;;;;;;9.13;2.60;;;;;;;;;;5023799;28;20071;-63
2023/05/29 08:19:42;;;;;;;6.07;2.60;;;;;;;;;;5026573;28;20100;-64
2023/05/29 08:22:07;;;;;;;5.77;2.50;;;;;;;;;;5015740;28;20029;-64
2023/05/29 08:24:32;;;;;;;7.03;2.72;;;;;;;;;;5027984;28;20060;-62
2023/05/29 08:26:58;;;;;;;7.28;2.42;;;;;;;;;;5023381;28;20034;-64
2023/05/29 08:29:23;;;;;;;7.27;2.53;;;;;;;;;;5031341;28;20576;-63
2023/05/29 08:31:48;;;;;;;7.37;2.50;;;;;;;;;;5020017;28;20032;-63
2023/05/29 08:34:13;;;;;;;6.77;2.40;;;;;;;;;;5029263;28;20029;-63
2023/05/29 08:36:40;;;;;;;7.80;2.80;;;;;;;;;;5014876;28;20034;-63
2023/05/29 08:39:06;;;;;;;6.45;2.47;;;;;;;;;;5027870;28;20539;-65
2023/05/29 08:41:31;;;;;;;6.30;2.90;;;;;;;;;;5031221;28;20022;-64
2023/05/29 08:43:58;;;;;;;5.90;2.75;;;;;;;;;;5015952;28;20029;-63
2023/05/29 08:46:24;;;;;;;6.68;2.80;;;;;;;;;;5027815;28;20142;-65
2023/05/29 08:48:49;;;;;;;8.00;2.90;;;;;;;;;;5029248;28;20057;-64
2023/05/29 08:51:15;;;;;;;7.13;2.42;;;;;;;;;;5025442;28;20045;-65
2023/05/29 08:53:41;;;;;;;8.30;2.70;;;;;;;;;;5015651;28;20041;-63
2023/05/29 08:56:07;;;;;;;6.32;2.50;;;;;;;;;;5031367;28;20044;-66
2023/05/29 08:58:33;;;;;;;6.18;2.53;;;;;;;;;;5031034;28;20389;-63
2023/05/29 09:00:59;;;;;;;6.32;2.88;;;;;;;;;;5024829;28;20022;-63
2023/05/29 09:03:24;;;;;;;6.25;2.42;;;;;;;;;;5029596;28;20021;-63
2023/05/29 09:05:50;;;;;;;7.93;2.80;;;;;;;;;;5019503;28;20021;-63
2023/05/29 09:08:16;;;;;;;6.55;2.20;;;;;;;;;;5029257;28;20444;-64
2023/05/29 09:10:43;;;;;;;4.47;1.90;;;;;;;;;;5025687;28;20033;-63
2023/05/29 09:13:09;;;;;;;5.68;2.00;;;;;;;;;;5030449;28;20047;-64
2023/05/29 09:15:35;;;;;;;5.53;2.03;;;;;;;;;;5023407;28;20026;-62
2023/05/29 09:18:00;;;;;;;5.38;1.95;;;;;;;;;;5030800;28;20048;-63
2023/05/29 09:20:27;;;;;;;5.88;2.30;;;;;;;;;;5020355;28;20024;-64
2023/05/29 09:23:03;;;;;;;5.45;2.20;;;;;;;;;;5023786;28;20375;-64
2023/05/29 09:25:33;;;;;;;4.45;1.70;;;;;;;;;;5028075;28;20033;-64
2023/05/29 09:27:59;;;;;;;4.95;1.80;;;;;;;;;;5030169;28;20393;-64
2023/05/29 09:30:35;;;;;;;5.60;2.00;;;;;;;;;;5030301;28;20446;-63
2023/05/29 09:33:01;;;;;;;6.10;2.00;;;;;;;;;;5028455;28;20440;-63
2023/05/29 09:35:27;;;;;;;5.40;2.00;;;;;;;;;;5028939;28;20025;-64
2023/05/29 09:37:52;;;;;;;;;;;;;;;;;;5024677;28;20014;-64
2023/05/29 09:40:17;;;;;;;6.30;1.83;;;;;;;;;;5026107;28;19911;-64
2023/05/29 09:42:42;;;;;;;4.75;1.73;;;;;;;;;;5029536;28;20033;-63
2023/05/29 09:45:08;;;;;;;5.73;2.10;;;;;;;;;;5033886;28;20060;-64
2023/05/29 09:47:34;;;;;;;6.13;1.98;;;;;;;;;;5034540;28;20021;-64
2023/05/29 09:50:00;;;;;;;5.72;1.73;;;;;;;;;;5033999;28;20695;-64
2023/05/29 09:52:25;;;;;;;5.22;1.85;;;;;;;;;;5031347;28;20026;-64
2023/05/29 09:54:51;;;;;;;5.53;1.65;;;;;;;;;;5032451;28;20043;-64
2023/05/29 09:57:17;;;;;;;5.10;1.88;;;;;;;;;;5034097;28;20127;-65
2023/05/29 09:59:48;;;;;;;6.80;1.75;;;;;;;;;;5034730;28;20026;-64
2023/05/29 10:02:15;;;;;;;5.15;1.80;;;;;;;;;;5035108;28;20033;-64
2023/05/29 10:04:40;;;;;;;5.35;1.85;;;;;;;;;;5032915;28;20018;-63
2023/05/29 10:07:11;;;;;;;4.23;1.70;;;;;;;;;;5035163;28;20481;-62
2023/05/29 10:09:42;;;;;;;6.82;2.00;;;;;;;;;;5035743;28;20027;-64
2023/05/29 10:12:08;;;;;;;4.63;1.80;;;;;;;;;;5035392;28;20535;-65
2023/05/29 10:14:34;;;;;;;5.95;2.08;;;;;;;;;;5033725;28;20025;-65
2023/05/29 10:17:03;;;;;;;5.32;2.10;;;;;;;;;;5034399;28;20037;-65
2023/05/29 10:19:29;;;;;;;5.05;1.83;;;;;;;;;;5033254;28;20072;-63
2023/05/29 10:21:56;;;;;;;5.78;1.90;;;;;;;;;;5035679;28;20025;-64
2023/05/29 10:24:21;;;;;;;6.00;1.85;;;;;;;;;;5032909;28;20037;-64
2023/05/29 10:26:48;;;;;;;6.15;2.08;;;;;;;;;;5027006;28;20029;-63
2023/05/29 10:29:23;;;;;;;5.70;1.98;;;;;;;;;;5034539;28;20080;-64
2023/05/29 10:31:59;;;;;;;5.50;2.05;;;;;;;;;;5033628;28;20111;-64
2023/05/29 10:34:38;;;;;;;4.63;2.00;;;;;;;;;;5029376;28;20028;-64
2023/05/29 10:37:15;;;;;;;5.00;2.03;;;;;;;;;;5033451;28;20091;-64
2023/05/29 10:39:40;;;;;;;6.95;2.20;;;;;;;;;;5032786;28;20492;-64
2023/05/29 10:42:25;;;;;;;6.23;2.20;;;;;;;;;;5020184;28;20018;-64
2023/05/29 10:44:50;;;;;;;7.05;2.33;;;;;;;;;;5023960;28;20044;-62
2023/05/29 10:47:22;;;;;;;5.80;1.83;;;;;;;;;;5029793;28;20474;-65
2023/05/29 10:49:53;;;;;;;4.90;2.28;;;;;;;;;;5029663;28;20488;-65
2023/05/29 10:52:19;;;;;;;5.38;2.10;;;;;;;;;;5029247;28;20041;-63
2023/05/29 10:54:51;;;;;;;5.67;2.17;;;;;;;;;;5024806;28;20095;-64
2023/05/29 10:57:17;;;;;;;4.53;1.95;;;;;;;;;;5020451;28;20018;-63
2023/05/29 10:59:44;;;;;;;6.13;2.00;;;;;;;;;;5040020;28;20021;-64
2023/05/29 11:02:10;;;;;;;5.50;1.95;;;;;;;;;;5033464;28;20385;-64
2023/05/29 11:04:36;;;;;;;4.72;2.10;;;;;;;;;;5034030;28;20021;-64
2023/05/29 11:07:05;;;;;;;5.20;2.00;;;;;;;;;;5031399;28;20013;-64
2023/05/29 11:09:34;;;;;;;5.35;2.17;;;;;;;;;;5030466;28;20022;-64
2023/05/29 11:12:13;;;;;;;6.07;2.13;;;;;;;;;;5031985;28;20473;-64
2023/05/29 11:14:45;;;;;;;6.47;2.20;;;;;;;;;;5034507;28;20072;-65
2023/05/29 11:17:28;;;;;;;5.70;2.20;;;;;;;;;;5032899;28;20025;-64
2023/05/29 11:19:53;;;;;;;6.20;2.35;;;;;;;;;;5028287;28;20013;-64
2023/05/29 11:22:22;;;;;;;4.93;1.77;;;;;;;;;;5034775;28;20016;-65
2023/05/29 11:24:47;;;;;;;6.82;2.30;;;;;;;;;;5034062;28;20020;-63
2023/05/29 11:27:13;;;;;;;5.32;2.05;;;;;;;;;;5029435;28;20013;-65
2023/05/29 11:29:38;;;;;;;;;;;;;;;;;;5031047;28;20022;-64
2023/05/29 11:32:09;;;;;;;5.43;2.30;;;;;;;;;;5032483;28;19908;-64
2023/05/29 11:34:38;;;;;;;5.72;2.00;;;;;;;;;;5032581;28;20068;-64
2023/05/29 11:37:04;;;;;;;4.45;1.92;;;;;;;;;;5031164;28;20593;-64
2023/05/29 11:39:30;;;;;;;6.38;2.20;;;;;;;;;;5030031;28;20029;-64
2023/05/29 11:41:56;;;;;;;;;;;;;;;;;;5030635;28;20033;-64
2023/05/29 11:44:24;;;;;;;5.97;2.15;;;;;;;;;;5032178;28;20467;-64
2023/05/29 11:47:05;;;;;;;5.78;2.17;;;;;;;;;;5011160;28;20026;-65
2023/05/29 11:49:34;;;;;;;5.78;1.98;;;;;;;;;;5023134;28;20028;-64
2023/05/29 11:52:07;;;;;;;6.05;2.20;;;;;;;;;;5034321;28;20017;-63
2023/05/29 11:54:33;;;;;;;6.80;2.20;;;;;;;;;;5051599;28;20445;-64
2023/05/29 11:57:00;;;;;;;7.22;2.17;;;;;;;;;;5042952;28;20489;-65
2023/05/29 11:59:27;;;;;;;7.78;2.30;;;;;;;;;;5026193;28;20025;-65
2023/05/29 12:01:53;;;;;;;4.82;2.28;;;;;;;;;;5030624;28;20024;-64
2023/05/29 12:04:18;;;;;;;5.70;2.27;;;;;;;;;;5031692;28;20388;-64
2023/05/29 12:06:44;;;;;;;5.10;2.40;;;;;;;;;;5026964;28;20025;-65
2023/05/29 12:09:09;;;;;;;4.68;2.20;;;;;;;;;;5031041;28;20025;-64
2023/05/29 12:11:34;;;;;;;6.03;2.00;;;;;;;;;;5028069;28;20022;-64
2023/05/29 12:14:00;;;;;;;;;;;;;;;;;;5016940;28;20389;-64
2023/05/29 12:16:26;;;;;;;5.47;2.05;;;;;;;;;;5020160;28;20411;-65
2023/05/29 12:18:51;;;;;;;4.80;2.05;;;;;;;;;;5020894;28;20024;-64
2023/05/29 12:21:16;;;;;;;;;;;;;;;;;;5016999;28;20101;-64
2023/05/29 12:23:41;;;;;;;7.33;2.27;;;;;;;;;;5019388;28;19917;-64
2023/05/29 12:26:07;;;;;;;6.50;2.20;;;;;;;;;;5028221;28;21021;-65
2023/05/29 12:28:32;;;;;;;4.70;1.93;;;;;;;;;;5023584;28;20455;-65
2023/05/29 12:30:58;;;;;;;4.67;2.10;;;;;;;;;;5030359;28;20029;-65
2023/05/29 12:33:30;;;;;;;7.57;2.25;;;;;;;;;;5020140;28;20100;-65
2023/05/29 12:36:01;;;;;;;5.78;2.33;;;;;;;;;;5025653;28;20076;-64
2023/05/29 12:38:27;;;;;;;5.93;1.98;;;;;;;;;;5021151;28;20013;-64
2023/05/29 12:40:52;;;;;;;8.18;2.35;;;;;;;;;;5023495;28;20014;-65
2023/05/29 12:43:18;;;;;;;6.47;2.33;;;;;;;;;;5025771;28;20030;-64
2023/05/29 12:45:43;;;;;;;;;;;;;;;;;;5018418;28;20426;-65
2023/05/29 12:48:10;;;;;;;8.55;2.90;;;;;;;;;;5026821;28;19909;-64
2023/05/29 12:50:37;;;;;;;7.47;2.17;;;;;;;;;;5019731;28;20024;-65
2023/05/29 12:53:04;;;;;;;5.90;2.20;;;;;;;;;;5037134;28;20029;-63
2023/05/29 12:55:30;;;;;;;4.68;2.10;;;;;;;;;;5024806;28;20113;-65
2023/05/29 12:57:55;;;;;;;5.63;2.10;;;;;;;;;;5026551;28;20105;-64
2023/05/29 13:00:21;;;;;;;7.97;2.60;;;;;;;;;;5018534;28;20105;-64
2023/05/29 13:02:47;;;;;;;6.90;2.40;;;;;;;;;;5025690;28;20061;-64
2023/05/29 13:05:13;;;;;;;8.32;2.60;;;;;;;;;;5016431;28;20477;-64
2023/05/29 13:07:38;;;;;;;5.15;1.90;;;;;;;;;;5023459;28;20026;-65
2023/05/29 13:10:03;;;;;;;;;;;;;;;;;;5011835;28;20104;-65
2023/05/29 13:12:29;;;;;;;7.22;2.63;;;;;;;;;;5012879;28;20007;-64
2023/05/29 13:14:57;;;;;;;5.90;2.37;;;;;;;;;;5016507;28;20444;-66
2023/05/29 13:17:22;;;;;;;6.13;2.20;;;;;;;;;;5025709;28;20029;-64
2023/05/29 13:19:47;;;;;;;5.20;2.20;;;;;;;;;;5015989;28;20167;-64
2023/05/29 13:22:12;;;;;;;7.13;2.33;;;;;;;;;;5028270;28;20014;-64
2023/05/29 13:24:38;;;;;;;7.10;2.30;;;;;;;;;;5014959;28;20030;-64
2023/05/29 13:27:03;;;;;;;;;;;;;;;;;;5019191;28;20025;-64
2023/05/29 13:29:28;;;;;;;5.18;2.20;;;;;;;;;;5019026;28;19916;-64
2023/05/29 13:31:53;;;;;;;;;;;;;;;;;;5017548;28;20036;-62
2023/05/29 13:34:19;;;;;;;4.60;2.30;;;;;;;;;;5020326;28;19955;-62
2023/05/29 13:36:44;;;;;;;;;;;;;;;;;;5010637;28;20065;-63
2023/05/29 13:39:10;;;;;;;6.28;2.35;;;;;;;;;;5023126;28;19916;-61
2023/05/29 13:41:35;;;;;;;5.22;2.50;;;;;;;;;;5021270;28;20117;-63
2023/05/29 13:44:01;;;;;;;6.30;2.30;;;;;;;;;;5020046;28;20030;-63
2023/05/29 13:46:26;;;;;;;5.80;2.40;;;;;;;;;;5029138;28;20519;-63
2023/05/29 13:48:52;;;;;;;;;;;;;;;;;;5029983;28;20457;-62
2023/05/29 13:51:17;;;;;;;4.65;2.25;;;;;;;;;;5021147;28;19914;-61
2023/05/29 13:53:42;;;;;;;5.47;2.27;;;;;;;;;;5018691;28;20061;-60
2023/05/29 13:56:07;;;;;;;;;;;;;;;;;;5021749;28;20067;-63
2023/05/29 13:58:32;;;;;;;5.57;2.10;;;;;;;;;;5024507;28;20000;-63
2023/05/29 14:00:57;;;;;;;6.90;2.23;;;;;;;;;;5024271;28;20066;-63
2023/05/29 14:03:25;;;;;;;;;;;;;;;;;;5021176;28;20020;-63
2023/05/29 14:05:50;;;;;;;6.70;2.10;;;;;;;;;;5017133;28;22378;-62
2023/05/29 14:08:15;;;;;;;6.30;2.47;;;;;;;;;;5028121;28;20097;-63
2023/05/29 14:10:40;;;;;;;6.87;2.47;;;;;;;;;;5025176;28;20067;-63
2023/05/29 14:13:06;;;;;;;6.67;2.63;;;;;;;;;;5024562;28;20473;-63
2023/05/29 14:15:31;;;;;;;6.40;2.65;;;;;;;;;;5024220;28;20037;-64
2023/05/29 14:17:57;;;;;;;6.07;2.53;;;;;;;;;;5019899;28;20055;-63
2023/05/29 14:20:22;;;;;;;6.78;2.67;;;;;;;;;;5021718;28;20068;-62
2023/05/29 14:22:47;;;;;;;;;;;;;;;;;;5025691;28;20103;-63
2023/05/29 14:25:12;;;;;;;5.63;2.53;;;;;;;;;;5022984;28;19925;-63
2023/05/29 14:27:37;;;;;;;;;;;;;;;;;;5021022;28;20433;-63
2023/05/29 14:30:03;;;;;;;5.70;2.53;;;;;;;;;;5021120;28;19909;-62
2023/05/29 14:32:28;;;;;;;6.57;2.70;;;;;;;;;;5030619;28;20053;-60
2023/05/29 14:34:53;;;;;;;5.77;2.23;;;;;;;;;;5023961;28;20497;-61
2023/05/29 14:37:18;;;;;;;;;;;;;;;;;;5023872;28;20014;-61
2023/05/29 14:39:43;;;;;;;6.80;2.63;;;;;;;;;;5028237;28;20003;-62
2023/05/29 14:42:08;;;;;;;6.68;2.25;;;;;;;;;;5030288;28;20049;-62